sensor_id;sensor_type;location;lat;lon;timestamp;pressure;altitude;pressure_sealevel;temperature;humidity
69528;BME280;57136;51.986;4.468;2023-03-15T00:02:04;101303.91;;;3.91;100.00
69528;BME280;57136;51.986;4.468;2023-03-15T00:04:31;101300.53;;;3.92;100.00
69528;BME280;57136;51.986;4.468;2023-03-15T00:06:57;101307.22;;;3.87;100.00
69528;BME280;57136;51.986;4.468;2023-03-15T00:09:23;101306.91;;;3.79;100.00
69528;BME280;57136;51.986;4.468;2023-03-15T00:11:49;101308.06;;;3.65;100.00
69528;BME280;57136;51.986;4.468;2023-03-15T00:14:15;101301.00;;;3.60;100.00
69528;BME280;57136;51.986;4.468;2023-03-15T00:16:41;101311.03;;;3.53;100.00
69528;BME280;57136;51.986;4.468;2023-03-15T00:19:07;101319.31;;;3.45;100.00
69528;BME280;57136;51.986;4.468;2023-03-15T00:21:33;101312.69;;;3.52;100.00
69528;BME280;57136;51.986;4.468;2023-03-15T00:23:59;101318.22;;;3.40;100.00
69528;BME280;57136;51.986;4.468;2023-03-15T00:26:24;101314.41;;;3.30;100.00
69528;BME280;57136;51.986;4.468;2023-03-15T00:28:50;101321.50;;;3.36;100.00
69528;BME280;57136;51.986;4.468;2023-03-15T00:31:17;101322.06;;;3.29;100.00
69528;BME280;57136;51.986;4.468;2023-03-15T00:33:43;101317.53;;;3.23;100.00
69528;BME280;57136;51.986;4.468;2023-03-15T00:36:09;101324.19;;;3.18;100.00
69528;BME280;57136;51.986;4.468;2023-03-15T00:38:37;101333.16;;;3.07;100.00
69528;BME280;57136;51.986;4.468;2023-03-15T00:41:07;101322.09;;;3.09;100.00
69528;BME280;57136;51.986;4.468;2023-03-15T00:43:33;101325.81;;;3.16;100.00
69528;BME280;57136;51.986;4.468;2023-03-15T00:45:59;101324.44;;;3.03;100.00
69528;BME280;57136;51.986;4.468;2023-03-15T00:48:25;101330.72;;;3.10;100.00
69528;BME280;57136;51.986;4.468;2023-03-15T00:50:50;101321.03;;;3.04;100.00
69528;BME280;57136;51.986;4.468;2023-03-15T00:53:16;101335.25;;;2.96;100.00
69528;BME280;57136;51.986;4.468;2023-03-15T00:55:41;101339.47;;;2.94;100.00
69528;BME280;57136;51.986;4.468;2023-03-15T00:58:07;101334.84;;;2.87;100.00
69528;BME280;57136;51.986;4.468;2023-03-15T01:00:32;101339.84;;;2.83;100.00
69528;BME280;57136;51.986;4.468;2023-03-15T01:02:58;101351.59;;;2.77;100.00
69528;BME280;57136;51.986;4.468;2023-03-15T01:05:23;101352.34;;;2.74;100.00
69528;BME280;57136;51.986;4.468;2023-03-15T01:07:50;101351.44;;;2.74;100.00
69528;BME280;57136;51.986;4.468;2023-03-15T01:10:16;101361.59;;;2.70;100.00
69528;BME280;57136;51.986;4.468;2023-03-15T01:12:42;101360.13;;;2.76;100.00
69528;BME280;57136;51.986;4.468;2023-03-15T01:15:08;101352.41;;;2.76;100.00
69528;BME280;57136;51.986;4.468;2023-03-15T01:17:36;101371.22;;;2.75;100.00
69528;BME280;57136;51.986;4.468;2023-03-15T01:20:01;101371.22;;;2.75;100.00
69528;BME280;57136;51.986;4.468;2023-03-15T01:22:29;101378.13;;;2.76;100.00
69528;BME280;57136;51.986;4.468;2023-03-15T01:24:54;101376.97;;;2.69;100.00
69528;BME280;57136;51.986;4.468;2023-03-15T01:27:20;101376.63;;;2.61;100.00
69528;BME280;57136;51.986;4.468;2023-03-15T01:29:46;101379.06;;;2.58;100.00
69528;BME280;57136;51.986;4.468;2023-03-15T01:32:12;101377.03;;;2.51;100.00
69528;BME280;57136;51.986;4.468;2023-03-15T01:34:37;101384.53;;;2.46;100.00
69528;BME280;57136;51.986;4.468;2023-03-15T01:37:03;101386.66;;;2.55;100.00
69528;BME280;57136;51.986;4.468;2023-03-15T01:39:29;101389.88;;;2.51;100.00
69528;BME280;57136;51.986;4.468;2023-03-15T01:41:54;101391.03;;;2.58;100.00
69528;BME280;57136;51.986;4.468;2023-03-15T01:44:20;101393.84;;;2.62;100.00
69528;BME280;57136;51.986;4.468;2023-03-15T01:46:47;101403.09;;;2.59;100.00
69528;BME280;57136;51.986;4.468;2023-03-15T01:49:19;101406.09;;;2.68;100.00
69528;BME280;57136;51.986;4.468;2023-03-15T01:51:55;101415.66;;;2.70;100.00
69528;BME280;57136;51.986;4.468;2023-03-15T01:54:50;101421.03;;;2.75;100.00
69528;BME280;57136;51.986;4.468;2023-03-15T01:57:29;101418.03;;;2.66;100.00
69528;BME280;57136;51.986;4.468;2023-03-15T02:00:00;101426.91;;;2.54;100.00
69528;BME280;57136;51.986;4.468;2023-03-15T02:02:28;101421.38;;;2.45;100.00
69528;BME280;57136;51.986;4.468;2023-03-15T02:04:57;101421.22;;;2.42;100.00
69528;BME280;57136;51.986;4.468;2023-03-15T02:07:25;101426.50;;;2.45;100.00
69528;BME280;57136;51.986;4.468;2023-03-15T02:12:27;101427.03;;;2.38;100.00
69528;BME280;57136;51.986;4.468;2023-03-15T02:14:54;101429.22;;;2.30;100.00
69528;BME280;57136;51.986;4.468;2023-03-15T02:17:24;101432.66;;;2.49;100.00
69528;BME280;57136;51.986;4.468;2023-03-15T02:20:00;101439.53;;;2.48;100.00
69528;BME280;57136;51.986;4.468;2023-03-15T02:28:09;101437.97;;;2.34;100.00
69528;BME280;57136;51.986;4.468;2023-03-15T02:30:36;101445.97;;;2.22;100.00
69528;BME280;57136;51.986;4.468;2023-03-15T02:33:06;101454.84;;;2.10;100.00
69528;BME280;57136;51.986;4.468;2023-03-15T02:35:33;101449.03;;;1.97;100.00
69528;BME280;57136;51.986;4.468;2023-03-15T02:37:58;101454.28;;;1.82;100.00
69528;BME280;57136;51.986;4.468;2023-03-15T02:40:27;101457.13;;;1.70;100.00
69528;BME280;57136;51.986;4.468;2023-03-15T02:42:59;101456.56;;;1.59;100.00
69528;BME280;57136;51.986;4.468;2023-03-15T02:45:28;101457.78;;;1.49;100.00
69528;BME280;57136;51.986;4.468;2023-03-15T02:47:56;101466.72;;;1.39;100.00
69528;BME280;57136;51.986;4.468;2023-03-15T02:50:22;101472.44;;;1.33;100.00
69528;BME280;57136;51.986;4.468;2023-03-15T02:52:47;101472.09;;;1.27;100.00
69528;BME280;57136;51.986;4.468;2023-03-15T02:55:13;101477.00;;;1.23;100.00
69528;BME280;57136;51.986;4.468;2023-03-15T02:57:38;101481.88;;;1.18;100.00
69528;BME280;57136;51.986;4.468;2023-03-15T03:00:04;101493.44;;;1.26;100.00
69528;BME280;57136;51.986;4.468;2023-03-15T03:02:41;101502.75;;;1.24;100.00
69528;BME280;57136;51.986;4.468;2023-03-15T03:05:07;101515.66;;;1.26;100.00
69528;BME280;57136;51.986;4.468;2023-03-15T03:07:34;101508.78;;;1.25;100.00
69528;BME280;57136;51.986;4.468;2023-03-15T03:09:59;101512.16;;;1.24;100.00
69528;BME280;57136;51.986;4.468;2023-03-15T03:12:25;101516.53;;;1.26;100.00
69528;BME280;57136;51.986;4.468;2023-03-15T03:14:50;101522.47;;;1.25;100.00
69528;BME280;57136;51.986;4.468;2023-03-15T03:17:15;101526.03;;;1.27;100.00
69528;BME280;57136;51.986;4.468;2023-03-15T03:19:41;101521.13;;;1.32;100.00
69528;BME280;57136;51.986;4.468;2023-03-15T03:22:06;101536.53;;;1.32;100.00
69528;BME280;57136;51.986;4.468;2023-03-15T03:24:32;101549.22;;;1.45;100.00
69528;BME280;57136;51.986;4.468;2023-03-15T03:26:58;101546.31;;;1.56;100.00
69528;BME280;57136;51.986;4.468;2023-03-15T03:29:24;101557.09;;;1.82;100.00
69528;BME280;57136;51.986;4.468;2023-03-15T03:31:50;101556.28;;;1.83;100.00
69528;BME280;57136;51.986;4.468;2023-03-15T03:34:15;101564.47;;;1.92;100.00
69528;BME280;57136;51.986;4.468;2023-03-15T03:36:41;101560.72;;;1.85;100.00
69528;BME280;57136;51.986;4.468;2023-03-15T03:39:08;101556.38;;;1.84;100.00
69528;BME280;57136;51.986;4.468;2023-03-15T03:41:33;101562.88;;;1.94;100.00
69528;BME280;57136;51.986;4.468;2023-03-15T03:43:59;101568.75;;;1.91;100.00
69528;BME280;57136;51.986;4.468;2023-03-15T03:46:24;101564.06;;;2.01;100.00
69528;BME280;57136;51.986;4.468;2023-03-15T03:48:49;101554.19;;;2.08;100.00
69528;BME280;57136;51.986;4.468;2023-03-15T03:51:15;101559.13;;;2.22;100.00
69528;BME280;57136;51.986;4.468;2023-03-15T03:53:40;101563.47;;;2.23;100.00
69528;BME280;57136;51.986;4.468;2023-03-15T03:56:06;101553.13;;;2.21;100.00
69528;BME280;57136;51.986;4.468;2023-03-15T03:58:32;101563.72;;;2.46;100.00
69528;BME280;57136;51.986;4.468;2023-03-15T04:00:58;101567.41;;;2.51;100.00
69528;BME280;57136;51.986;4.468;2023-03-15T04:03:23;101573.81;;;2.59;100.00
69528;BME280;57136;51.986;4.468;2023-03-15T04:05:56;101578.38;;;2.65;100.00
69528;BME280;57136;51.986;4.468;2023-03-15T04:08:23;101576.84;;;2.50;100.00
69528;BME280;57136;51.986;4.468;2023-03-15T04:10:50;101582.81;;;2.33;100.00
69528;BME280;57136;51.986;4.468;2023-03-15T04:13:16;101584.91;;;2.23;100.00
69528;BME280;57136;51.986;4.468;2023-03-15T04:15:41;101589.78;;;2.17;100.00
69528;BME280;57136;51.986;4.468;2023-03-15T04:18:07;101594.59;;;2.11;100.00
69528;BME280;57136;51.986;4.468;2023-03-15T04:20:32;101603.75;;;2.06;100.00
69528;BME280;57136;51.986;4.468;2023-03-15T04:22:59;101609.38;;;1.99;100.00
69528;BME280;57136;51.986;4.468;2023-03-15T04:25:24;101611.78;;;1.95;100.00
69528;BME280;57136;51.986;4.468;2023-03-15T04:27:50;101612.44;;;1.91;100.00
69528;BME280;57136;51.986;4.468;2023-03-15T04:30:24;101614.75;;;1.87;100.00
69528;BME280;57136;51.986;4.468;2023-03-15T04:32:51;101613.63;;;1.82;100.00
69528;BME280;57136;51.986;4.468;2023-03-15T04:35:27;101621.66;;;1.88;100.00
69528;BME280;57136;51.986;4.468;2023-03-15T04:37:53;101622.63;;;1.90;100.00
69528;BME280;57136;51.986;4.468;2023-03-15T04:40:18;101636.69;;;1.97;100.00
69528;BME280;57136;51.986;4.468;2023-03-15T04:42:44;101638.06;;;2.06;100.00
69528;BME280;57136;51.986;4.468;2023-03-15T04:45:09;101644.63;;;2.18;100.00
69528;BME280;57136;51.986;4.468;2023-03-15T04:47:35;101652.69;;;2.24;100.00
69528;BME280;57136;51.986;4.468;2023-03-15T04:50:00;101651.06;;;2.26;100.00
69528;BME280;57136;51.986;4.468;2023-03-15T04:52:26;101654.94;;;2.34;100.00
69528;BME280;57136;51.986;4.468;2023-03-15T04:54:51;101645.28;;;2.30;100.00
69528;BME280;57136;51.986;4.468;2023-03-15T04:57:16;101654.50;;;2.27;100.00
69528;BME280;57136;51.986;4.468;2023-03-15T04:59:42;101648.97;;;2.19;100.00
69528;BME280;57136;51.986;4.468;2023-03-15T05:02:07;101649.56;;;2.13;100.00
69528;BME280;57136;51.986;4.468;2023-03-15T05:04:32;101651.00;;;2.08;100.00
69528;BME280;57136;51.986;4.468;2023-03-15T05:06:58;101655.81;;;2.18;100.00
69528;BME280;57136;51.986;4.468;2023-03-15T05:09:23;101656.31;;;2.11;100.00
69528;BME280;57136;51.986;4.468;2023-03-15T05:11:48;101656.38;;;1.96;100.00
69528;BME280;57136;51.986;4.468;2023-03-15T05:14:14;101663.03;;;1.76;100.00
69528;BME280;57136;51.986;4.468;2023-03-15T05:16:39;101669.75;;;1.57;100.00
69528;BME280;57136;51.986;4.468;2023-03-15T05:19:07;101680.72;;;1.55;100.00
69528;BME280;57136;51.986;4.468;2023-03-15T05:21:32;101679.50;;;1.48;100.00
69528;BME280;57136;51.986;4.468;2023-03-15T05:23:58;101674.47;;;1.49;100.00
69528;BME280;57136;51.986;4.468;2023-03-15T05:26:23;101677.84;;;1.48;100.00
69528;BME280;57136;51.986;4.468;2023-03-15T05:28:49;101678.34;;;1.43;100.00
69528;BME280;57136;51.986;4.468;2023-03-15T05:31:16;101679.25;;;1.43;100.00
69528;BME280;57136;51.986;4.468;2023-03-15T05:33:42;101684.41;;;1.43;100.00
69528;BME280;57136;51.986;4.468;2023-03-15T05:36:11;101682.84;;;1.30;100.00
69528;BME280;57136;51.986;4.468;2023-03-15T05:38:41;101695.75;;;1.17;100.00
69528;BME280;57136;51.986;4.468;2023-03-15T05:41:07;101702.31;;;1.27;100.00
69528;BME280;57136;51.986;4.468;2023-03-15T05:43:33;101706.63;;;1.28;100.00
69528;BME280;57136;51.986;4.468;2023-03-15T05:45:58;101709.66;;;1.36;100.00
69528;BME280;57136;51.986;4.468;2023-03-15T05:48:24;101705.53;;;1.23;100.00
69528;BME280;57136;51.986;4.468;2023-03-15T05:50:49;101720.28;;;1.12;100.00
69528;BME280;57136;51.986;4.468;2023-03-15T05:53:14;101720.56;;;1.01;100.00
69528;BME280;57136;51.986;4.468;2023-03-15T05:55:40;101727.03;;;1.10;100.00
69528;BME280;57136;51.986;4.468;2023-03-15T05:58:05;101728.97;;;1.14;100.00
69528;BME280;57136;51.986;4.468;2023-03-15T06:00:31;101738.72;;;1.04;100.00
69528;BME280;57136;51.986;4.468;2023-03-15T06:02:56;101742.09;;;1.03;100.00
69528;BME280;57136;51.986;4.468;2023-03-15T06:05:22;101746.44;;;1.04;100.00
69528;BME280;57136;51.986;4.468;2023-03-15T06:07:47;101755.19;;;1.08;100.00
69528;BME280;57136;51.986;4.468;2023-03-15T06:10:13;101763.06;;;1.11;100.00
69528;BME280;57136;51.986;4.468;2023-03-15T06:12:38;101766.00;;;1.17;100.00
69528;BME280;57136;51.986;4.468;2023-03-15T06:15:04;101775.47;;;1.18;100.00
69528;BME280;57136;51.986;4.468;2023-03-15T06:17:30;101775.63;;;1.07;100.00
69528;BME280;57136;51.986;4.468;2023-03-15T06:19:55;101767.31;;;0.96;100.00
69528;BME280;57136;51.986;4.468;2023-03-15T06:22:21;101774.66;;;0.89;100.00
69528;BME280;57136;51.986;4.468;2023-03-15T06:24:48;101790.91;;;0.90;100.00
69528;BME280;57136;51.986;4.468;2023-03-15T06:27:14;101782.53;;;0.93;100.00
69528;BME280;57136;51.986;4.468;2023-03-15T06:29:39;101791.53;;;1.01;100.00
69528;BME280;57136;51.986;4.468;2023-03-15T06:32:05;101798.81;;;1.08;100.00
69528;BME280;57136;51.986;4.468;2023-03-15T06:34:30;101805.19;;;1.15;100.00
69528;BME280;57136;51.986;4.468;2023-03-15T06:36:56;101807.44;;;1.24;100.00
69528;BME280;57136;51.986;4.468;2023-03-15T06:39:22;101818.22;;;1.33;100.00
69528;BME280;57136;51.986;4.468;2023-03-15T06:41:48;101802.19;;;1.52;100.00
69528;BME280;57136;51.986;4.468;2023-03-15T06:44:17;101804.00;;;1.70;100.00
69528;BME280;57136;51.986;4.468;2023-03-15T06:46:42;101810.13;;;1.72;100.00
69528;BME280;57136;51.986;4.468;2023-03-15T06:49:08;101816.41;;;1.77;100.00
69528;BME280;57136;51.986;4.468;2023-03-15T06:51:33;101815.31;;;2.03;100.00
69528;BME280;57136;51.986;4.468;2023-03-15T06:53:58;101817.97;;;2.36;100.00
69528;BME280;57136;51.986;4.468;2023-03-15T06:56:24;101826.56;;;2.70;100.00
69528;BME280;57136;51.986;4.468;2023-03-15T06:58:49;101828.25;;;3.03;100.00
69528;BME280;57136;51.986;4.468;2023-03-15T07:01:15;101831.25;;;3.28;100.00
69528;BME280;57136;51.986;4.468;2023-03-15T07:03:41;101828.94;;;3.51;100.00
69528;BME280;57136;51.986;4.468;2023-03-15T07:06:07;101831.78;;;3.74;100.00
69528;BME280;57136;51.986;4.468;2023-03-15T07:08:32;101830.88;;;3.92;100.00
69528;BME280;57136;51.986;4.468;2023-03-15T07:10:58;101833.97;;;4.02;100.00
69528;BME280;57136;51.986;4.468;2023-03-15T07:13:23;101843.03;;;4.12;100.00
69528;BME280;57136;51.986;4.468;2023-03-15T07:15:53;101840.88;;;4.22;100.00
69528;BME280;57136;51.986;4.468;2023-03-15T07:18:19;101845.44;;;4.27;100.00
69528;BME280;57136;51.986;4.468;2023-03-15T07:20:44;101843.91;;;4.31;100.00
69528;BME280;57136;51.986;4.468;2023-03-15T07:23:10;101855.28;;;4.36;100.00
69528;BME280;57136;51.986;4.468;2023-03-15T07:25:35;101858.84;;;4.38;100.00
69528;BME280;57136;51.986;4.468;2023-03-15T07:28:00;101863.75;;;4.52;100.00
69528;BME280;57136;51.986;4.468;2023-03-15T07:30:26;101866.75;;;4.61;100.00
69528;BME280;57136;51.986;4.468;2023-03-15T07:32:51;101861.31;;;4.94;100.00
69528;BME280;57136;51.986;4.468;2023-03-15T07:35:17;101868.53;;;5.01;100.00
69528;BME280;57136;51.986;4.468;2023-03-15T07:37:42;101861.13;;;5.09;100.00
69528;BME280;57136;51.986;4.468;2023-03-15T07:40:09;101863.47;;;5.24;100.00
69528;BME280;57136;51.986;4.468;2023-03-15T07:42:35;101868.25;;;5.77;100.00
69528;BME280;57136;51.986;4.468;2023-03-15T07:45:02;101878.66;;;5.78;100.00
69528;BME280;57136;51.986;4.468;2023-03-15T07:47:27;101874.94;;;6.14;100.00
69528;BME280;57136;51.986;4.468;2023-03-15T07:49:52;101881.63;;;6.09;100.00
69528;BME280;57136;51.986;4.468;2023-03-15T07:52:18;101892.88;;;6.09;100.00
69528;BME280;57136;51.986;4.468;2023-03-15T07:54:45;101895.97;;;5.79;100.00
69528;BME280;57136;51.986;4.468;2023-03-15T07:57:12;101897.50;;;5.76;100.00
69528;BME280;57136;51.986;4.468;2023-03-15T07:59:37;101905.97;;;5.72;100.00
69528;BME280;57136;51.986;4.468;2023-03-15T08:02:03;101907.63;;;5.69;100.00
69528;BME280;57136;51.986;4.468;2023-03-15T08:04:28;101915.97;;;5.83;100.00
69528;BME280;57136;51.986;4.468;2023-03-15T08:06:54;101908.13;;;5.82;100.00
69528;BME280;57136;51.986;4.468;2023-03-15T08:09:19;101913.13;;;5.77;100.00
69528;BME280;57136;51.986;4.468;2023-03-15T08:11:44;101917.56;;;5.60;100.00
69528;BME280;57136;51.986;4.468;2023-03-15T08:14:10;101920.81;;;5.35;100.00
69528;BME280;57136;51.986;4.468;2023-03-15T08:16:35;101926.91;;;5.37;100.00
69528;BME280;57136;51.986;4.468;2023-03-15T08:19:00;101929.38;;;5.34;100.00
69528;BME280;57136;51.986;4.468;2023-03-15T08:21:26;101930.91;;;5.50;100.00
69528;BME280;57136;51.986;4.468;2023-03-15T08:23:51;101934.47;;;5.52;100.00
69528;BME280;57136;51.986;4.468;2023-03-15T08:26:16;101935.31;;;5.72;100.00
69528;BME280;57136;51.986;4.468;2023-03-15T08:28:42;101937.91;;;5.72;100.00
69528;BME280;57136;51.986;4.468;2023-03-15T08:31:08;101937.00;;;5.93;100.00
69528;BME280;57136;51.986;4.468;2023-03-15T08:33:33;101939.38;;;6.08;100.00
69528;BME280;57136;51.986;4.468;2023-03-15T08:35:59;101944.44;;;6.05;100.00
69528;BME280;57136;51.986;4.468;2023-03-15T08:38:25;101936.41;;;6.20;100.00
69528;BME280;57136;51.986;4.468;2023-03-15T08:40:57;101946.06;;;6.24;100.00
69528;BME280;57136;51.986;4.468;2023-03-15T08:43:23;101938.56;;;6.30;97.74
69528;BME280;57136;51.986;4.468;2023-03-15T08:45:49;101944.44;;;6.26;93.44
69528;BME280;57136;51.986;4.468;2023-03-15T08:48:14;101941.31;;;6.35;96.74
69528;BME280;57136;51.986;4.468;2023-03-15T08:50:40;101947.56;;;6.40;92.46
69528;BME280;57136;51.986;4.468;2023-03-15T08:53:05;101948.09;;;6.54;92.62
69528;BME280;57136;51.986;4.468;2023-03-15T08:55:31;101940.88;;;6.68;94.68
69528;BME280;57136;51.986;4.468;2023-03-15T08:57:56;101953.69;;;6.65;91.64
69528;BME280;57136;51.986;4.468;2023-03-15T09:00:21;101954.22;;;6.56;91.88
69528;BME280;57136;51.986;4.468;2023-03-15T09:02:48;101948.09;;;6.77;89.11
69528;BME280;57136;51.986;4.468;2023-03-15T09:05:15;101948.38;;;7.07;86.06
69528;BME280;57136;51.986;4.468;2023-03-15T09:07:42;101950.03;;;7.05;86.42
69528;BME280;57136;51.986;4.468;2023-03-15T09:10:09;101948.69;;;7.16;82.64
69528;BME280;57136;51.986;4.468;2023-03-15T09:12:34;101943.09;;;7.54;81.49
69528;BME280;57136;51.986;4.468;2023-03-15T09:15:00;101942.00;;;7.72;80.61
69528;BME280;57136;51.986;4.468;2023-03-15T09:17:25;101942.00;;;7.99;77.98
69528;BME280;57136;51.986;4.468;2023-03-15T09:19:50;101933.50;;;8.87;77.83
69528;BME280;57136;51.986;4.468;2023-03-15T09:22:16;101936.53;;;9.35;73.61
69528;BME280;57136;51.986;4.468;2023-03-15T09:24:42;101934.94;;;10.09;67.77
69528;BME280;57136;51.986;4.468;2023-03-15T09:27:07;101935.16;;;10.16;62.17
69528;BME280;57136;51.986;4.468;2023-03-15T09:29:33;101940.13;;;10.42;60.57
69528;BME280;57136;51.986;4.468;2023-03-15T09:31:58;101928.66;;;10.75;61.40
69528;BME280;57136;51.986;4.468;2023-03-15T09:34:26;101936.06;;;10.97;59.30
69528;BME280;57136;51.986;4.468;2023-03-15T09:36:51;101936.13;;;11.46;59.82
69528;BME280;57136;51.986;4.468;2023-03-15T09:39:19;101941.88;;;11.26;54.36
69528;BME280;57136;51.986;4.468;2023-03-15T09:41:54;101939.34;;;11.31;51.70
69528;BME280;57136;51.986;4.468;2023-03-15T09:47:14;101935.00;;;11.80;55.68
69528;BME280;57136;51.986;4.468;2023-03-15T09:50:03;101938.63;;;11.90;49.96
69528;BME280;57136;51.986;4.468;2023-03-15T09:52:42;101933.28;;;11.81;46.59
69528;BME280;57136;51.986;4.468;2023-03-15T09:55:20;101933.34;;;11.84;43.80
69528;BME280;57136;51.986;4.468;2023-03-15T09:57:47;101936.22;;;11.50;47.71
69528;BME280;57136;51.986;4.468;2023-03-15T10:00:19;101937.53;;;11.76;46.84
69528;BME280;57136;51.986;4.468;2023-03-15T10:02:59;101936.53;;;11.20;45.37
69528;BME280;57136;51.986;4.468;2023-03-15T10:05:48;101933.06;;;11.21;43.34
69528;BME280;57136;51.986;4.468;2023-03-15T10:08:17;101943.25;;;11.53;46.32
69528;BME280;57136;51.986;4.468;2023-03-15T10:14:07;101949.75;;;11.78;41.17
69528;BME280;57136;51.986;4.468;2023-03-15T10:16:46;101938.47;;;12.32;42.88
69528;BME280;57136;51.986;4.468;2023-03-15T10:21:53;101951.47;;;12.28;47.34
69528;BME280;57136;51.986;4.468;2023-03-15T10:24:31;101964.69;;;13.02;44.21
69528;BME280;57136;51.986;4.468;2023-03-15T10:27:08;101970.28;;;12.64;41.12
69528;BME280;57136;51.986;4.468;2023-03-15T10:29:37;101969.31;;;13.24;42.68
69528;BME280;57136;51.986;4.468;2023-03-15T10:32:04;101972.88;;;13.30;40.62
69528;BME280;57136;51.986;4.468;2023-03-15T10:34:30;101979.13;;;12.74;40.47
69528;BME280;57136;51.986;4.468;2023-03-15T10:36:55;101975.75;;;12.21;42.54
69528;BME280;57136;51.986;4.468;2023-03-15T10:39:23;101970.47;;;12.18;42.69
69528;BME280;57136;51.986;4.468;2023-03-15T10:41:49;101982.50;;;12.64;44.17
69528;BME280;57136;51.986;4.468;2023-03-15T10:44:21;101985.34;;;12.21;42.95
69528;BME280;57136;51.986;4.468;2023-03-15T10:47:39;101978.69;;;12.43;42.42
69528;BME280;57136;51.986;4.468;2023-03-15T10:49:57;101983.69;;;12.27;44.17
69528;BME280;57136;51.986;4.468;2023-03-15T10:52:28;101985.22;;;11.64;47.53
69528;BME280;57136;51.986;4.468;2023-03-15T10:54:56;101992.00;;;11.54;45.02
69528;BME280;57136;51.986;4.468;2023-03-15T10:57:27;101992.84;;;11.53;50.63
69528;BME280;57136;51.986;4.468;2023-03-15T10:59:58;102001.41;;;11.03;45.25
69528;BME280;57136;51.986;4.468;2023-03-15T11:02:24;102006.94;;;10.77;45.56
69528;BME280;57136;51.986;4.468;2023-03-15T11:07:19;102004.03;;;11.95;42.83
69528;BME280;57136;51.986;4.468;2023-03-15T11:09:52;102009.31;;;12.50;41.94
69528;BME280;57136;51.986;4.468;2023-03-15T11:12:25;102019.47;;;12.90;39.75
69528;BME280;57136;51.986;4.468;2023-03-15T11:14:56;102008.41;;;13.11;39.04
69528;BME280;57136;51.986;4.468;2023-03-15T11:17:26;102006.66;;;13.09;38.92
69528;BME280;57136;51.986;4.468;2023-03-15T11:19:57;102002.28;;;13.11;38.99
69528;BME280;57136;51.986;4.468;2023-03-15T11:22:24;102002.28;;;13.11;39.57
69528;BME280;57136;51.986;4.468;2023-03-15T11:24:51;102000.56;;;13.11;42.44
69528;BME280;57136;51.986;4.468;2023-03-15T11:27:21;101997.78;;;12.99;39.66
69528;BME280;57136;51.986;4.468;2023-03-15T11:29:50;101997.78;;;12.99;42.29
69528;BME280;57136;51.986;4.468;2023-03-15T11:32:19;101997.34;;;12.65;41.92
69528;BME280;57136;51.986;4.468;2023-03-15T11:35:06;102001.91;;;12.83;39.97
69528;BME280;57136;51.986;4.468;2023-03-15T11:37:37;102004.44;;;12.75;40.48
69528;BME280;57136;51.986;4.468;2023-03-15T11:40:10;101991.69;;;13.00;39.94
69528;BME280;57136;51.986;4.468;2023-03-15T11:48:20;102002.31;;;12.48;36.65
69528;BME280;57136;51.986;4.468;2023-03-15T11:50:47;102003.59;;;12.19;39.57
69528;BME280;57136;51.986;4.468;2023-03-15T11:53:14;101998.34;;;12.76;37.90
69528;BME280;57136;51.986;4.468;2023-03-15T11:55:46;102000.69;;;13.21;35.85
69528;BME280;57136;51.986;4.468;2023-03-15T11:58:34;102004.56;;;13.54;36.39
69528;BME280;57136;51.986;4.468;2023-03-15T12:01:09;101996.88;;;13.69;36.91
69528;BME280;57136;51.986;4.468;2023-03-15T12:06:34;101996.72;;;12.84;37.89
69528;BME280;57136;51.986;4.468;2023-03-15T12:09:00;102002.56;;;13.34;38.30
69528;BME280;57136;51.986;4.468;2023-03-15T12:16:26;102001.75;;;14.28;37.68
69528;BME280;57136;51.986;4.468;2023-03-15T12:18:56;102009.25;;;13.84;39.72
69528;BME280;57136;51.986;4.468;2023-03-15T12:21:31;101997.63;;;13.59;39.25
69528;BME280;57136;51.986;4.468;2023-03-15T12:24:03;102006.53;;;12.41;40.10
69528;BME280;57136;51.986;4.468;2023-03-15T12:29:12;101997.28;;;12.05;42.47
69528;BME280;57136;51.986;4.468;2023-03-15T12:34:14;101994.47;;;12.49;40.24
69528;BME280;57136;51.986;4.468;2023-03-15T12:36:47;102000.66;;;12.53;40.53
69528;BME280;57136;51.986;4.468;2023-03-15T12:54:49;101986.34;;;12.91;36.95
69528;BME280;57136;51.986;4.468;2023-03-15T12:57:20;101984.69;;;12.96;35.30
69528;BME280;57136;51.986;4.468;2023-03-15T13:00:09;101979.50;;;13.02;35.56
69528;BME280;57136;51.986;4.468;2023-03-15T13:02:43;101978.84;;;13.20;34.82
69528;BME280;57136;51.986;4.468;2023-03-15T13:10:26;101973.50;;;13.09;36.41
69528;BME280;57136;51.986;4.468;2023-03-15T13:13:03;101973.47;;;12.43;33.61
69528;BME280;57136;51.986;4.468;2023-03-15T13:18:22;101977.00;;;13.13;35.73
69528;BME280;57136;51.986;4.468;2023-03-15T13:21:03;101975.25;;;13.12;33.56
69528;BME280;57136;51.986;4.468;2023-03-15T13:23:32;101980.13;;;12.84;35.32
69528;BME280;57136;51.986;4.468;2023-03-15T13:26:38;101970.69;;;12.94;33.76
69528;BME280;57136;51.986;4.468;2023-03-15T13:29:16;101988.88;;;12.86;36.38
69528;BME280;57136;51.986;4.468;2023-03-15T13:31:44;101991.19;;;12.63;37.06
69528;BME280;57136;51.986;4.468;2023-03-15T13:34:19;101990.09;;;12.48;36.93
69528;BME280;57136;51.986;4.468;2023-03-15T13:37:15;101994.53;;;13.17;35.41
69528;BME280;57136;51.986;4.468;2023-03-15T13:39:55;101992.53;;;12.99;35.28
69528;BME280;57136;51.986;4.468;2023-03-15T13:42:23;101989.44;;;12.63;35.68
69528;BME280;57136;51.986;4.468;2023-03-15T13:47:33;101984.78;;;12.42;36.36
69528;BME280;57136;51.986;4.468;2023-03-15T13:50:02;101994.56;;;12.54;35.38
69528;BME280;57136;51.986;4.468;2023-03-15T13:52:28;101988.94;;;12.29;35.95
69528;BME280;57136;51.986;4.468;2023-03-15T13:54:54;101985.03;;;12.59;38.61
69528;BME280;57136;51.986;4.468;2023-03-15T13:57:21;101991.25;;;12.67;38.68
69528;BME280;57136;51.986;4.468;2023-03-15T14:05:18;101984.13;;;12.55;38.80